Airfield :
LOGIN :

Register | Disclaimer

   EN    FR    IT 

 










Legend :    VFR   Marginal VFR   IFR   Intensive IFR   Very Intensive IFR
Visi :
Ceiling :
>= 8 km
>= 3000ft
5 to 8 km
1000 to 3000 ft
1500m to 5 km
500 to 1000 ft
800 to 1500m
200 to 500 ft
< 800m
< 200 ft
Symbols :   Thunderstorms  Fog  Heavy snow  Heavy precipitations  Wind > 20 kt
SIGMETs :     Misc.  Thunderstorms  Icing  Turbulence  Mountain Waves  Volcanic Ashes






- Airport Elevation : 436 ft
- IATA code : ANG


LFBU - Angoulême Brie Champniers

CURRENT METAR :
  • 270530Z AUTO 18014KT 9999 -RA OVC007/// ///TCU 07/07 Q1007 TEMPO 25020G30KT 3000 RA OVC004

EXPIRED METARs :
  • 270500Z AUTO 17012KT 9000 -RA OVC006 07/06 Q1007
  • 270430Z AUTO 17011KT 7000 RA OVC006 07/06 Q1008
  • 270400Z AUTO 17010KT 140V200 7000 -RA BKN005 OVC011 06/06 Q1009
  • 270330Z AUTO 17010KT 140V200 9999 -RA OVC005/// ///TCU 06/06 Q1010
  • 270300Z AUTO 17010KT 8000 RA BKN005 BKN024 OVC030 06/05 Q1011

TAF TAF LFBU
Valid from the 27 at 06:00 until the 28 at 06:00 UTC


270500Z 2706/2806 19015G25KT 9999 BKN010
PROB40 2706/2712 25020G30KT 3000 RA OVC004
BECMG 2712/2714 28020G35KT BKN020
BECMG 2714/2716 30015G25KT
BECMG 2718/2720 28005KT
TEMPO 2804/2806 2000 -DZ BKN005



MET'MAP, your aeronautical weather chart ! - Copyright ORBIFLY December 2007 - Disclaimer

ORBIFLY MET'MAP TEAM :

Programming & Development : Alexandra Zaïnal
Concept & original design : Baudouin d'Aumeries
Assistance for programming : Marc-Olivier Méhu
Technical & hardware support : Manuel Goepfert

Contact : metmap@orbifly.com




SOURCES & CREDITS :

   NOAA